Terminal Aerodrome Forecast
Issued by NWS Sioux Falls, SD

Home | Current Version | Previous Version | Graphics & Text | Print | Product List | Glossary Off
Versions: 1 2 3 4 5 6 7 8 9 10 11 12 13 14 15 16 17

000
FTUS43 KFSD 251740
TAFFSD
TAF
KFSD 251740Z 2518/2618 23005KT P6SM OVC030
     FM251900 22008KT P6SM BKN035
      TEMPO 2522/2601 4SM TSRA OVC025CB
     FM260100 35006KT P6SM SCT035 BKN070
     FM260900 02005KT 3SM BR OVC010
     FM261500 04010KT 5SM -SHRA BR SCT010 OVC035=

USA.gov is the U.S. government's official web portal to all federal, state and local government web resources and services.